Time;durP1;ratioP1;P1;durP2;ratioP2;P2;SDS_P1;SDS_P2;PMS_P1;PMS_P2;Temp;Humidity;BMP_temperature;BMP_pressure;BME280_temperature;BME280_humidity;BME280_pressure;Samples;Min_cycle;Max_cycle;Signal;HPM_P1;HPM_P2
2023/01/12 00:01:52;;;;;;;22.48;4.22;;;;;;;;;;5051479;28;20028;-69
2023/01/12 00:04:19;;;;;;;16.48;3.55;;;;;;;;;;5055175;28;20035;-70
2023/01/12 00:06:45;;;;;;;26.63;3.60;;;;;;;;;;5055389;28;20017;-70
2023/01/12 00:09:12;;;;;;;18.42;2.90;;;;;;;;;;5054738;28;20029;-69
2023/01/12 00:11:38;;;;;;;17.38;3.60;;;;;;;;;;5055031;28;20017;-70
2023/01/12 00:14:06;;;;;;;22.52;3.00;;;;;;;;;;5055008;28;20049;-70
2023/01/12 00:16:38;;;;;;;17.17;2.72;;;;;;;;;;5055316;28;20021;-69
2023/01/12 00:19:12;;;;;;;15.00;2.95;;;;;;;;;;5055449;28;20031;-70
2023/01/12 00:22:13;;;;;;;19.30;2.42;;;;;;;;;;5054988;28;20028;-70
2023/01/12 00:24:33;;;;;;;24.05;2.70;;;;;;;;;;5053598;28;20041;-69
2023/01/12 00:27:00;;;;;;;18.35;2.78;;;;;;;;;;5070428;28;20032;-69
2023/01/12 00:29:27;;;;;;;18.98;2.40;;;;;;;;;;5053488;28;20017;-70
2023/01/12 00:31:54;;;;;;;17.50;2.33;;;;;;;;;;5054865;28;20025;-69
2023/01/12 00:34:21;;;;;;;15.15;2.65;;;;;;;;;;5054674;28;20032;-70
2023/01/12 00:36:47;;;;;;;19.52;2.78;;;;;;;;;;5054281;28;20023;-70
2023/01/12 00:39:14;;;;;;;11.88;2.45;;;;;;;;;;5070047;28;20029;-69
2023/01/12 00:47:12;;;;;;;30.85;3.63;;;;;;;;;;5054593;28;20037;-69
2023/01/12 00:49:40;;;;;;;14.63;2.92;;;;;;;;;;5054276;28;20025;-70
2023/01/12 00:52:07;;;;;;;21.38;2.90;;;;;;;;;;5053795;28;20043;-69
2023/01/12 00:54:34;;;;;;;19.50;2.60;;;;;;;;;;5054712;28;20029;-70
2023/01/12 00:57:01;;;;;;;13.45;2.78;;;;;;;;;;5054291;28;20374;-70
2023/01/12 00:59:27;;;;;;;18.05;2.45;;;;;;;;;;5053979;28;20452;-69
2023/01/12 01:01:54;;;;;;;15.68;2.60;;;;;;;;;;5054527;28;20021;-70
2023/01/12 01:04:20;;;;;;;16.92;2.38;;;;;;;;;;5054097;28;20017;-70
2023/01/12 01:06:46;;;;;;;16.27;2.55;;;;;;;;;;5053478;28;20037;-69
2023/01/12 01:09:13;;;;;;;15.45;2.63;;;;;;;;;;5054390;28;20031;-69
2023/01/12 01:11:40;;;;;;;18.52;2.20;;;;;;;;;;5053749;28;20017;-70
2023/01/12 01:14:06;;;;;;;12.57;2.00;;;;;;;;;;5053028;28;20041;-70
2023/01/12 01:16:33;;;;;;;21.48;2.65;;;;;;;;;;5053919;28;20021;-69
2023/01/12 01:19:00;;;;;;;18.83;2.75;;;;;;;;;;5053825;28;20094;-70
2023/01/12 01:21:26;;;;;;;20.33;2.60;;;;;;;;;;5053360;28;20028;-69
2023/01/12 01:23:52;;;;;;;22.45;2.58;;;;;;;;;;5054009;28;20043;-69
2023/01/12 01:26:21;;;;;;;15.30;2.38;;;;;;;;;;5053628;28;20241;-69
2023/01/12 01:28:48;;;;;;;20.80;2.53;;;;;;;;;;5053623;28;20027;-69
2023/01/12 01:31:16;;;;;;;18.13;2.17;;;;;;;;;;5053731;28;20035;-69
2023/01/12 01:33:43;;;;;;;17.90;2.55;;;;;;;;;;5053838;28;20037;-69
2023/01/12 01:36:09;;;;;;;12.48;2.25;;;;;;;;;;5053175;28;20502;-69
2023/01/12 01:38:36;;;;;;;10.77;1.90;;;;;;;;;;5053577;28;20028;-70
2023/01/12 01:41:03;;;;;;;17.27;2.45;;;;;;;;;;5053305;28;20047;-69
2023/01/12 01:43:29;;;;;;;19.02;2.00;;;;;;;;;;5053335;28;20031;-69
2023/01/12 01:45:56;;;;;;;21.40;2.60;;;;;;;;;;5053616;28;20017;-69
2023/01/12 01:48:23;;;;;;;16.00;2.45;;;;;;;;;;5053190;28;20027;-69
2023/01/12 01:50:53;;;;;;;21.50;1.73;;;;;;;;;;5053196;28;20025;-70
2023/01/12 01:53:21;;;;;;;14.43;2.95;;;;;;;;;;5053482;28;20037;-69
2023/01/12 01:55:48;;;;;;;16.25;2.30;;;;;;;;;;5053208;28;20025;-69
2023/01/12 01:58:16;;;;;;;12.52;1.80;;;;;;;;;;5053024;28;20087;-70
2023/01/12 02:06:38;;;;;;;14.00;2.42;;;;;;;;;;5043474;22;20592;-71
2023/01/12 02:09:17;;;;;;;19.52;2.03;;;;;;;;;;5002076;28;20025;-69
2023/01/12 02:17:13;;;;;;;13.68;1.85;;;;;;;;;;4993582;28;20052;-69
2023/01/12 02:19:55;;;;;;;22.15;3.15;;;;;;;;;;4993698;28;20026;-69
2023/01/12 02:22:49;;;;;;;14.73;2.20;;;;;;;;;;4993349;28;20025;-69
2023/01/12 02:25:21;;;;;;;13.90;1.88;;;;;;;;;;5007308;28;20474;-70
2023/01/12 02:27:47;;;;;;;15.55;2.25;;;;;;;;;;5013221;28;20128;-69
2023/01/12 02:30:14;;;;;;;21.63;2.20;;;;;;;;;;5013111;28;20024;-69
2023/01/12 02:32:51;;;;;;;16.52;2.22;;;;;;;;;;5012822;28;20036;-69
2023/01/12 02:35:21;;;;;;;17.42;2.20;;;;;;;;;;5012876;28;20026;-69
2023/01/12 02:37:52;;;;;;;14.38;1.85;;;;;;;;;;5012632;28;20087;-69
2023/01/12 02:40:19;;;;;;;11.43;1.92;;;;;;;;;;5010966;28;20056;-69
2023/01/12 02:42:55;;;;;;;13.68;2.72;;;;;;;;;;5010781;28;20037;-69
2023/01/12 02:45:25;;;;;;;14.82;3.28;;;;;;;;;;5012590;28;20018;-69
2023/01/12 02:48:10;;;;;;;20.03;3.97;;;;;;;;;;5012697;28;20490;-69
2023/01/12 02:50:43;;;;;;;15.25;3.42;;;;;;;;;;5012224;28;20025;-69
2023/01/12 02:53:11;;;;;;;15.48;3.50;;;;;;;;;;5012635;28;20034;-69
2023/01/12 02:55:39;;;;;;;15.55;3.65;;;;;;;;;;5012458;28;20030;-69
2023/01/12 02:58:07;;;;;;;16.65;3.40;;;;;;;;;;5012788;28;20025;-69
2023/01/12 03:00:36;;;;;;;14.20;3.17;;;;;;;;;;5012416;28;20061;-69
2023/01/12 03:03:03;;;;;;;22.85;3.65;;;;;;;;;;5012412;28;20030;-69
2023/01/12 03:05:30;;;;;;;27.58;4.22;;;;;;;;;;5011881;28;20028;-69
2023/01/12 03:08:00;;;;;;;17.35;3.80;;;;;;;;;;5004431;28;20045;-69
2023/01/12 03:10:41;;;;;;;14.25;3.08;;;;;;;;;;4992813;28;20482;-69
2023/01/12 03:13:10;;;;;;;20.77;3.50;;;;;;;;;;4992885;28;20030;-69
2023/01/12 03:15:38;;;;;;;13.35;3.08;;;;;;;;;;4992931;28;20022;-69
2023/01/12 03:18:25;;;;;;;14.10;2.97;;;;;;;;;;4992659;28;20387;-69
2023/01/12 03:20:57;;;;;;;17.27;3.65;;;;;;;;;;4992530;28;20022;-69
2023/01/12 03:23:26;;;;;;;17.00;3.00;;;;;;;;;;4992858;28;20033;-70
2023/01/12 03:25:54;;;;;;;14.45;3.00;;;;;;;;;;4992628;28;20021;-69
2023/01/12 03:28:22;;;;;;;16.63;2.42;;;;;;;;;;4992562;28;20026;-69
2023/01/12 03:30:55;;;;;;;15.75;2.58;;;;;;;;;;4992720;28;20033;-69
2023/01/12 03:33:22;;;;;;;16.90;2.55;;;;;;;;;;4992344;28;20022;-69
2023/01/12 03:36:08;;;;;;;17.33;2.65;;;;;;;;;;4992283;28;20045;-69
2023/01/12 03:38:37;;;;;;;10.00;2.10;;;;;;;;;;4897299;29;20033;-69
2023/01/12 03:41:11;;;;;;;15.48;2.55;;;;;;;;;;4898921;29;20048;-69
2023/01/12 03:43:39;;;;;;;18.85;2.53;;;;;;;;;;4917391;29;20044;-69
2023/01/12 03:46:20;;;;;;;19.23;2.65;;;;;;;;;;4917292;29;20040;-69
2023/01/12 03:49:09;;;;;;;10.73;2.38;;;;;;;;;;4916680;29;20039;-69
2023/01/12 03:51:38;;;;;;;14.15;2.78;;;;;;;;;;4909906;29;20042;-69
2023/01/12 03:54:04;;;;;;;11.30;2.03;;;;;;;;;;4901310;29;20620;-69
2023/01/12 03:56:33;;;;;;;17.02;2.60;;;;;;;;;;4917032;29;20519;-69
2023/01/12 03:58:59;;;;;;;13.50;2.03;;;;;;;;;;4917097;29;20028;-69
2023/01/12 04:01:26;;;;;;;12.77;2.75;;;;;;;;;;4917229;29;20036;-69
2023/01/12 04:03:52;;;;;;;15.85;3.00;;;;;;;;;;4916562;29;20040;-69
2023/01/12 04:06:18;;;;;;;17.67;2.15;;;;;;;;;;4916776;29;20060;-69
2023/01/12 04:08:45;;;;;;;12.75;2.03;;;;;;;;;;4917428;29;20040;-69
2023/01/12 04:13:56;;;;;;;14.02;2.13;;;;;;;;;;4916624;29;20040;-69
2023/01/12 04:16:22;;;;;;;16.83;2.30;;;;;;;;;;4994869;28;20041;-69
2023/01/12 04:18:49;;;;;;;13.57;2.05;;;;;;;;;;5015023;28;20034;-69
2023/01/12 04:24:00;;;;;;;12.85;2.13;;;;;;;;;;5015447;28;20025;-69
2023/01/12 04:26:26;;;;;;;14.35;2.10;;;;;;;;;;5015376;28;20030;-69
2023/01/12 04:28:53;;;;;;;12.38;2.58;;;;;;;;;;5015359;28;20030;-69
2023/01/12 04:31:19;;;;;;;17.65;2.40;;;;;;;;;;5015246;28;20322;-69
2023/01/12 04:33:45;;;;;;;17.83;2.85;;;;;;;;;;5014774;28;20041;-69
2023/01/12 04:36:12;;;;;;;14.15;2.55;;;;;;;;;;5030199;28;20048;-69
2023/01/12 04:38:38;;;;;;;13.85;2.00;;;;;;;;;;5014843;28;20026;-67
2023/01/12 04:41:05;;;;;;;14.75;2.25;;;;;;;;;;5015033;28;20022;-69
2023/01/12 04:43:32;;;;;;;11.18;1.92;;;;;;;;;;5014780;28;20541;-69
2023/01/12 04:45:58;;;;;;;12.77;2.10;;;;;;;;;;5014634;28;20060;-69
2023/01/12 04:48:24;;;;;;;13.38;2.05;;;;;;;;;;5013986;28;20036;-68
2023/01/12 04:50:51;;;;;;;10.55;2.00;;;;;;;;;;5014117;28;20014;-69
2023/01/12 04:53:17;;;;;;;11.90;1.70;;;;;;;;;;5014657;28;20040;-69
2023/01/12 04:55:43;;;;;;;12.70;1.75;;;;;;;;;;5014723;28;20097;-69
2023/01/12 04:58:10;;;;;;;10.13;2.00;;;;;;;;;;5014841;28;20080;-69
2023/01/12 05:00:36;;;;;;;11.05;2.08;;;;;;;;;;5014636;28;20022;-69
2023/01/12 05:03:02;;;;;;;5.47;1.20;;;;;;;;;;5014291;28;20025;-68
2023/01/12 05:05:29;;;;;;;8.48;1.50;;;;;;;;;;5014269;28;20018;-68
2023/01/12 05:10:48;;;;;;;4.80;1.42;;;;;;;;;;4995038;28;20032;-69
2023/01/12 05:13:14;;;;;;;8.23;1.83;;;;;;;;;;4994674;28;20068;-69
2023/01/12 05:15:41;;;;;;;14.77;1.90;;;;;;;;;;4994494;28;20038;-69
2023/01/12 05:18:07;;;;;;;7.03;1.52;;;;;;;;;;4994643;28;20023;-69
2023/01/12 05:20:33;;;;;;;4.75;1.17;;;;;;;;;;4994650;28;20037;-69
2023/01/12 05:23:00;;;;;;;11.15;1.83;;;;;;;;;;4994614;28;20068;-69
2023/01/12 05:25:27;;;;;;;7.07;1.60;;;;;;;;;;4994548;28;20034;-69
2023/01/12 05:27:57;;;;;;;7.28;1.70;;;;;;;;;;5009614;28;20034;-69
2023/01/12 05:30:24;;;;;;;9.50;1.63;;;;;;;;;;4994031;28;20031;-69
2023/01/12 05:32:50;;;;;;;7.93;1.63;;;;;;;;;;4994232;28;20478;-69
2023/01/12 05:35:16;;;;;;;10.55;1.90;;;;;;;;;;4994610;28;20042;-69
2023/01/12 05:37:43;;;;;;;7.80;1.27;;;;;;;;;;4994272;28;20030;-69
2023/01/12 05:40:10;;;;;;;12.38;1.88;;;;;;;;;;4994297;28;20026;-69
2023/01/12 05:45:21;;;;;;;10.25;1.75;;;;;;;;;;4993706;28;20026;-69
2023/01/12 05:47:47;;;;;;;8.60;1.92;;;;;;;;;;4994145;28;20382;-69
2023/01/12 05:50:13;;;;;;;12.65;2.03;;;;;;;;;;4994006;28;20026;-69
2023/01/12 05:52:40;;;;;;;9.82;1.98;;;;;;;;;;4993847;28;20406;-69
2023/01/12 05:55:06;;;;;;;7.82;1.77;;;;;;;;;;4994030;28;20474;-69
2023/01/12 05:57:33;;;;;;;8.98;1.80;;;;;;;;;;4994123;28;20019;-69
2023/01/12 05:59:59;;;;;;;9.43;2.10;;;;;;;;;;4993458;28;20026;-69
2023/01/12 06:02:25;;;;;;;18.95;4.47;;;;;;;;;;4994068;28;20376;-69
2023/01/12 06:04:52;;;;;;;14.45;3.78;;;;;;;;;;4993728;28;20022;-69
2023/01/12 06:07:18;;;;;;;13.48;3.05;;;;;;;;;;4993468;28;20052;-70
2023/01/12 06:09:44;;;;;;;15.07;2.50;;;;;;;;;;4993830;28;20041;-69
2023/01/12 06:14:56;;;;;;;10.85;2.40;;;;;;;;;;4993119;28;20038;-69
2023/01/12 06:17:22;;;;;;;8.68;2.45;;;;;;;;;;4992619;28;20041;-69
2023/01/12 06:19:48;;;;;;;10.95;2.47;;;;;;;;;;4992496;28;20030;-69
2023/01/12 06:22:15;;;;;;;14.25;3.28;;;;;;;;;;4993453;28;20019;-69
2023/01/12 06:24:41;;;;;;;12.88;3.00;;;;;;;;;;4993593;28;20031;-69
2023/01/12 06:27:07;;;;;;;13.98;2.42;;;;;;;;;;4993381;28;20076;-69
2023/01/12 06:29:34;;;;;;;17.17;3.45;;;;;;;;;;4992930;28;20022;-69
2023/01/12 06:32:00;;;;;;;11.90;2.65;;;;;;;;;;4993484;28;20030;-69
2023/01/12 06:34:26;;;;;;;12.98;2.92;;;;;;;;;;4993169;28;20034;-69
2023/01/12 06:36:53;;;;;;;9.68;2.33;;;;;;;;;;4992997;28;20019;-69
2023/01/12 06:39:19;;;;;;;22.70;3.67;;;;;;;;;;4993026;28;20026;-70
2023/01/12 06:44:30;;;;;;;17.88;4.85;;;;;;;;;;5007931;28;20019;-70
2023/01/12 06:46:56;;;;;;;20.05;4.00;;;;;;;;;;4993127;28;20038;-70
2023/01/12 06:49:23;;;;;;;16.42;4.13;;;;;;;;;;4991550;28;20052;-69
2023/01/12 06:51:50;;;;;;;18.17;4.43;;;;;;;;;;4993061;28;20027;-69
2023/01/12 06:54:16;;;;;;;21.67;4.20;;;;;;;;;;4992899;28;20042;-69
2023/01/12 06:56:42;;;;;;;11.88;3.25;;;;;;;;;;4992813;28;20491;-69
2023/01/12 06:59:11;;;;;;;19.35;3.70;;;;;;;;;;4992599;28;20023;-69
2023/01/12 07:01:38;;;;;;;15.43;3.83;;;;;;;;;;4992727;28;20510;-69
2023/01/12 07:04:04;;;;;;;17.02;3.35;;;;;;;;;;5004881;28;20026;-70
2023/01/12 07:06:31;;;;;;;22.63;3.85;;;;;;;;;;5010974;28;20038;-69
2023/01/12 07:08:57;;;;;;;24.98;4.47;;;;;;;;;;5003965;28;20033;-69
2023/01/12 07:11:23;;;;;;;17.63;3.53;;;;;;;;;;4992377;28;20022;-69
2023/01/12 07:13:50;;;;;;;14.13;2.92;;;;;;;;;;4989838;28;20518;-69
2023/01/12 07:16:16;;;;;;;21.65;3.42;;;;;;;;;;5008219;28;20042;-69
2023/01/12 07:18:42;;;;;;;19.15;4.70;;;;;;;;;;5012138;28;20022;-69
2023/01/12 07:21:12;;;;;;;16.25;3.88;;;;;;;;;;5012072;28;20018;-69
2023/01/12 07:23:40;;;;;;;19.02;4.65;;;;;;;;;;5006874;28;20024;-69
2023/01/12 07:26:07;;;;;;;20.25;4.15;;;;;;;;;;5005683;28;20037;-69
2023/01/12 07:28:33;;;;;;;19.55;3.83;;;;;;;;;;5009271;28;20030;-69
2023/01/12 07:31:01;;;;;;;17.10;4.15;;;;;;;;;;4991886;28;20372;-69
2023/01/12 07:33:27;;;;;;;14.95;3.65;;;;;;;;;;4992055;28;20045;-70
2023/01/12 07:35:56;;;;;;;21.83;4.85;;;;;;;;;;5007984;28;20474;-69
2023/01/12 07:38:23;;;;;;;15.27;4.00;;;;;;;;;;4996003;28;20163;-69
2023/01/12 07:40:49;;;;;;;12.63;3.72;;;;;;;;;;4997278;28;20132;-69
2023/01/12 07:43:17;;;;;;;31.10;4.68;;;;;;;;;;5009615;28;20037;-69
2023/01/12 07:45:44;;;;;;;14.48;4.45;;;;;;;;;;5014731;28;20041;-69
2023/01/12 07:48:10;;;;;;;13.43;3.55;;;;;;;;;;4991995;28;20516;-69
2023/01/12 07:50:37;;;;;;;18.92;3.92;;;;;;;;;;4992847;28;20033;-70
2023/01/12 07:53:03;;;;;;;23.85;4.68;;;;;;;;;;5003151;28;20034;-70
2023/01/12 07:55:31;;;;;;;22.70;5.40;;;;;;;;;;4991548;28;20045;-70
2023/01/12 07:57:58;;;;;;;27.08;9.15;;;;;;;;;;5006017;28;20015;-70
2023/01/12 08:00:25;;;;;;;82.40;39.13;;;;;;;;;;5011106;28;20079;-70
2023/01/12 08:02:52;;;;;;;43.10;18.98;;;;;;;;;;5009127;28;20073;-70
2023/01/12 08:05:19;;;;;;;23.42;6.68;;;;;;;;;;4991849;28;20028;-70
2023/01/12 08:07:45;;;;;;;25.90;7.10;;;;;;;;;;4992776;28;20498;-70
2023/01/12 08:10:13;;;;;;;20.05;6.22;;;;;;;;;;4997664;28;20057;-70
2023/01/12 08:12:39;;;;;;;21.75;6.45;;;;;;;;;;5003116;28;20022;-69
2023/01/12 08:15:07;;;;;;;18.63;6.15;;;;;;;;;;4996548;28;20419;-70
2023/01/12 08:17:35;;;;;;;21.17;5.68;;;;;;;;;;5002513;28;20034;-70
2023/01/12 08:20:16;;;;;;;20.90;4.32;;;;;;;;;;5009639;28;20109;-69
2023/01/12 08:22:43;;;;;;;15.40;3.87;;;;;;;;;;5011261;28;20504;-69
2023/01/12 08:25:12;;;;;;;21.95;4.47;;;;;;;;;;5012887;28;20281;-68
2023/01/12 08:27:40;;;;;;;23.40;4.00;;;;;;;;;;5015065;28;20030;-69
2023/01/12 08:30:07;;;;;;;11.57;3.72;;;;;;;;;;5012292;28;20030;-69
2023/01/12 08:32:34;;;;;;;13.38;3.58;;;;;;;;;;5003583;28;20018;-69
2023/01/12 08:35:01;;;;;;;15.48;4.32;;;;;;;;;;5014172;28;20041;-69
2023/01/12 08:37:28;;;;;;;23.40;5.05;;;;;;;;;;5014589;28;20034;-69
2023/01/12 08:39:55;;;;;;;17.30;4.68;;;;;;;;;;5010106;28;20022;-69
2023/01/12 08:42:26;;;;;;;19.63;5.53;;;;;;;;;;4999763;28;20034;-69
2023/01/12 08:44:52;;;;;;;;;;;;;;;;;;5000115;28;20390;-70
2023/01/12 08:47:20;;;;;;;24.13;5.63;;;;;;;;;;5008464;28;19910;-70
2023/01/12 08:49:46;;;;;;;17.85;5.40;;;;;;;;;;5014322;28;20381;-69
2023/01/12 08:52:13;;;;;;;27.38;6.40;;;;;;;;;;5029567;28;20099;-69
2023/01/12 08:54:40;;;;;;;20.92;6.95;;;;;;;;;;5010717;28;20125;-69
2023/01/12 08:57:06;;;;;;;23.85;7.25;;;;;;;;;;5002908;28;20022;-69
2023/01/12 08:59:32;;;;;;;21.00;7.47;;;;;;;;;;4994519;28;20487;-69
2023/01/12 09:01:59;;;;;;;19.45;5.88;;;;;;;;;;5007419;28;20017;-70
2023/01/12 09:04:25;;;;;;;25.88;9.85;;;;;;;;;;4994747;28;20388;-69
2023/01/12 09:06:51;;;;;;;17.75;6.10;;;;;;;;;;4999127;28;20060;-70
2023/01/12 09:09:19;;;;;;;13.77;4.85;;;;;;;;;;4998106;28;20038;-70
2023/01/12 09:11:46;;;;;;;11.88;4.25;;;;;;;;;;4995932;28;20030;-69
2023/01/12 09:14:13;;;;;;;16.60;4.32;;;;;;;;;;5013758;28;20049;-69
2023/01/12 09:16:40;;;;;;;12.52;4.68;;;;;;;;;;5013746;28;20029;-69
2023/01/12 09:19:06;;;;;;;16.88;5.38;;;;;;;;;;5013872;28;20036;-69
2023/01/12 09:21:36;;;;;;;18.20;4.70;;;;;;;;;;5013872;28;20029;-69
2023/01/12 09:24:02;;;;;;;14.63;5.30;;;;;;;;;;5009462;28;20018;-69
2023/01/12 09:26:30;;;;;;;24.30;7.85;;;;;;;;;;4993541;28;20029;-69
2023/01/12 09:29:00;;;;;;;16.25;6.22;;;;;;;;;;4994145;28;20450;-70
2023/01/12 09:31:27;;;;;;;21.13;6.50;;;;;;;;;;4993850;28;20471;-69
2023/01/12 09:33:54;;;;;;;14.07;5.43;;;;;;;;;;4994100;28;20487;-69
2023/01/12 09:36:22;;;;;;;20.45;5.70;;;;;;;;;;4993345;28;20032;-69
2023/01/12 09:38:49;;;;;;;18.25;6.50;;;;;;;;;;5000462;28;20037;-70
2023/01/12 09:46:57;;;;;;;20.58;6.20;;;;;;;;;;5008069;28;20029;-69
2023/01/12 09:47:28;;;;;;;33.22;11.57;;;;;;;;;;5012828;28;20038;-70
2023/01/12 09:49:58;;;;;;;21.17;6.28;;;;;;;;;;5013623;28;20024;-69
2023/01/12 09:52:28;;;;;;;21.05;7.30;;;;;;;;;;5012874;28;20058;-70
2023/01/12 09:54:55;;;;;;;18.83;4.93;;;;;;;;;;5010989;28;20347;-69
2023/01/12 09:57:21;;;;;;;22.60;4.72;;;;;;;;;;4995239;28;20364;-69
2023/01/12 09:59:55;;;;;;;17.33;4.38;;;;;;;;;;5009885;28;20034;-70
2023/01/12 10:02:22;;;;;;;9.32;3.45;;;;;;;;;;5000868;28;20027;-70
2023/01/12 10:04:50;;;;;;;12.15;2.40;;;;;;;;;;5007141;28;20023;-70
2023/01/12 10:07:17;;;;;;;12.80;2.35;;;;;;;;;;4999247;28;20046;-70
2023/01/12 10:09:44;;;;;;;8.63;2.58;;;;;;;;;;4998487;28;20133;-69
2023/01/12 10:12:13;;;;;;;10.98;2.28;;;;;;;;;;4993315;28;20040;-69
2023/01/12 10:14:49;;;;;;;8.82;2.40;;;;;;;;;;4993087;28;20041;-69
2023/01/12 10:17:35;;;;;;;13.48;1.88;;;;;;;;;;5001511;28;20028;-70
2023/01/12 10:20:04;;;;;;;11.20;2.75;;;;;;;;;;5004897;28;20085;-68
2023/01/12 10:22:38;;;;;;;14.63;2.88;;;;;;;;;;5002976;28;20022;-69
2023/01/12 10:25:16;;;;;;;11.63;2.75;;;;;;;;;;5002117;28;20486;-71
2023/01/12 10:27:44;;;;;;;17.48;3.40;;;;;;;;;;4992383;28;20506;-70
2023/01/12 10:30:31;;;;;;;13.77;3.83;;;;;;;;;;4992538;28;20027;-70
2023/01/12 10:33:17;;;;;;;12.60;3.35;;;;;;;;;;4998166;28;20032;-70
2023/01/12 10:35:51;;;;;;;17.00;4.22;;;;;;;;;;5011898;28;20038;-69
2023/01/12 10:38:22;;;;;;;17.27;3.28;;;;;;;;;;5012588;28;20038;-70
2023/01/12 10:40:48;;;;;;;;;;;;;;;;;;5013119;28;20022;-69
2023/01/12 10:43:19;;;;;;;17.15;2.90;;;;;;;;;;5012432;28;19912;-69
2023/01/12 10:46:05;;;;;;;9.03;2.83;;;;;;;;;;5012608;28;20028;-70
2023/01/12 10:48:32;;;;;;;13.20;1.98;;;;;;;;;;5011605;28;20037;-69
2023/01/12 10:51:06;;;;;;;12.07;2.30;;;;;;;;;;5012110;28;20033;-70
2023/01/12 10:53:40;;;;;;;14.23;2.55;;;;;;;;;;5011977;28;20353;-69
2023/01/12 10:56:14;;;;;;;13.60;2.45;;;;;;;;;;5012419;28;20029;-70
2023/01/12 10:58:43;;;;;;;13.55;2.78;;;;;;;;;;5027627;28;20034;-70
2023/01/12 11:01:13;;;;;;;15.60;2.35;;;;;;;;;;5012206;28;20492;-69
2023/01/12 11:03:42;;;;;;;9.60;2.00;;;;;;;;;;5011631;28;20026;-70
2023/01/12 11:06:16;;;;;;;9.77;1.88;;;;;;;;;;4992923;28;20042;-70
2023/01/12 11:08:43;;;;;;;16.30;3.75;;;;;;;;;;4991966;28;20038;-70
2023/01/12 11:11:18;;;;;;;16.73;4.03;;;;;;;;;;4992437;28;20368;-70
2023/01/12 11:13:45;;;;;;;15.50;3.45;;;;;;;;;;5006727;28;20482;-69
2023/01/12 11:16:16;;;;;;;16.77;3.10;;;;;;;;;;5011535;28;20032;-70
2023/01/12 11:18:58;;;;;;;9.30;2.40;;;;;;;;;;5011292;28;20033;-69
2023/01/12 11:21:27;;;;;;;12.65;2.85;;;;;;;;;;5010414;28;20029;-70
2023/01/12 11:24:04;;;;;;;14.52;2.45;;;;;;;;;;5011548;28;20500;-69
2023/01/12 11:26:45;;;;;;;17.27;3.92;;;;;;;;;;5012040;28;20026;-70
2023/01/12 11:29:20;;;;;;;16.33;4.05;;;;;;;;;;5011968;28;20028;-69
2023/01/12 11:31:47;;;;;;;19.35;4.60;;;;;;;;;;5012184;28;20045;-69
2023/01/12 11:34:22;;;;;;;15.45;4.13;;;;;;;;;;5011404;28;20091;-69
2023/01/12 11:36:51;;;;;;;14.98;5.38;;;;;;;;;;5011896;28;20498;-70
2023/01/12 11:39:20;;;;;;;16.50;3.42;;;;;;;;;;5011781;28;20494;-70
2023/01/12 11:44:55;;;;;;;16.02;4.75;;;;;;;;;;5010880;28;20037;-70
2023/01/12 11:47:23;;;;;;;10.38;3.22;;;;;;;;;;5011026;28;20022;-69
2023/01/12 11:49:59;;;;;;;14.93;4.22;;;;;;;;;;5011913;28;20025;-69
2023/01/12 11:52:26;;;;;;;22.00;8.35;;;;;;;;;;5012125;28;20034;-68
2023/01/12 11:54:52;;;;;;;13.40;4.90;;;;;;;;;;5011436;28;20402;-68
2023/01/12 11:57:22;;;;;;;10.52;4.07;;;;;;;;;;5011540;28;20393;-69
2023/01/12 11:59:48;;;;;;;7.50;2.20;;;;;;;;;;5014816;28;20513;-69
2023/01/12 12:02:33;;;;;;;12.65;4.78;;;;;;;;;;5014829;28;20384;-69
2023/01/12 12:05:11;;;;;;;10.25;3.13;;;;;;;;;;5015385;28;20030;-69
2023/01/12 12:07:44;;;;;;;15.13;5.35;;;;;;;;;;5015134;28;20052;-69
2023/01/12 12:10:11;;;;;;;14.18;3.10;;;;;;;;;;4998055;28;20405;-69
2023/01/12 12:12:45;;;;;;;16.30;4.15;;;;;;;;;;4995573;28;20485;-69
2023/01/12 12:15:32;;;;;;;12.05;1.73;;;;;;;;;;4995667;28;20065;-70
2023/01/12 12:18:07;;;;;;;9.30;2.28;;;;;;;;;;4995501;28;20034;-69
2023/01/12 12:20:39;;;;;;;7.45;1.63;;;;;;;;;;4995785;28;20030;-70
2023/01/12 12:23:25;;;;;;;9.88;1.90;;;;;;;;;;4995509;28;20580;-70
2023/01/12 12:25:51;;;;;;;12.25;2.78;;;;;;;;;;4994133;28;20041;-70
2023/01/12 12:28:33;;;;;;;14.75;2.10;;;;;;;;;;4995209;28;20433;-70
2023/01/12 12:31:15;;;;;;;7.85;1.85;;;;;;;;;;4994976;28;20433;-69
2023/01/12 12:33:42;;;;;;;5.47;1.60;;;;;;;;;;4995299;28;20046;-69
2023/01/12 12:36:22;;;;;;;8.02;1.65;;;;;;;;;;4995212;28;20030;-69
2023/01/12 12:39:18;;;;;;;11.67;2.40;;;;;;;;;;4995401;28;20036;-69
2023/01/12 12:47:41;;;;;;;10.07;2.10;;;;;;;;;;5003263;28;20046;-68
2023/01/12 12:50:37;;;;;;;10.32;1.90;;;;;;;;;;5013123;28;20033;-68
2023/01/12 12:53:06;;;;;;;18.10;4.90;;;;;;;;;;5007104;28;20053;-69
2023/01/12 12:55:33;;;;;;;10.70;3.20;;;;;;;;;;5014355;28;20401;-69
2023/01/12 12:58:01;;;;;;;9.48;2.13;;;;;;;;;;5012641;28;20036;-68
2023/01/12 13:00:30;;;;;;;11.10;1.83;;;;;;;;;;4997137;28;20398;-69
2023/01/12 13:02:57;;;;;;;8.50;1.50;;;;;;;;;;5011479;28;20026;-69
2023/01/12 13:05:42;;;;;;;7.45;1.40;;;;;;;;;;5006401;28;20441;-68
2023/01/12 13:08:19;;;;;;;7.88;1.50;;;;;;;;;;5002608;28;20502;-68
2023/01/12 13:10:54;;;;;;;3.58;1.23;;;;;;;;;;4993537;28;20036;-69
2023/01/12 13:13:31;;;;;;;8.65;1.65;;;;;;;;;;4999378;28;20141;-69
2023/01/12 13:16:09;;;;;;;4.13;1.30;;;;;;;;;;5011279;28;20018;-70
2023/01/12 13:18:42;;;;;;;6.80;1.63;;;;;;;;;;4998372;28;20405;-68
2023/01/12 13:21:26;;;;;;;9.45;1.40;;;;;;;;;;5001472;28;20018;-69
2023/01/12 13:23:53;;;;;;;6.40;1.88;;;;;;;;;;5000708;28;20025;-68
2023/01/12 13:26:40;;;;;;;8.35;1.65;;;;;;;;;;4998752;28;20030;-69
2023/01/12 13:29:25;;;;;;;4.82;1.45;;;;;;;;;;5004746;28;20034;-68
2023/01/12 13:31:53;;;;;;;8.60;1.45;;;;;;;;;;5007288;28;20034;-69
2023/01/12 13:34:46;;;;;;;6.53;2.10;;;;;;;;;;5004322;28;20535;-70
2023/01/12 13:37:15;;;;;;;7.93;2.08;;;;;;;;;;4997580;28;20044;-69
2023/01/12 13:39:43;;;;;;;6.50;1.80;;;;;;;;;;5000689;28;20026;-68
2023/01/12 13:45:03;;;;;;;9.65;2.17;;;;;;;;;;4999083;28;20104;-68
2023/01/12 13:47:31;;;;;;;11.45;1.60;;;;;;;;;;4999094;28;20019;-68
2023/01/12 13:49:59;;;;;;;7.60;1.50;;;;;;;;;;4998980;28;20088;-68
2023/01/12 13:52:34;;;;;;;5.85;1.80;;;;;;;;;;5004478;28;20030;-68
2023/01/12 13:55:01;;;;;;;5.93;1.73;;;;;;;;;;5006396;28;20042;-69
2023/01/12 13:57:28;;;;;;;5.75;1.38;;;;;;;;;;5003893;28;20468;-68
2023/01/12 14:00:09;;;;;;;6.70;2.08;;;;;;;;;;4999810;28;20048;-68
2023/01/12 14:02:37;;;;;;;9.60;1.58;;;;;;;;;;4999147;28;20140;-70
2023/01/12 14:05:11;;;;;;;11.35;3.25;;;;;;;;;;5000108;28;20038;-68
2023/01/12 14:07:51;;;;;;;15.18;4.75;;;;;;;;;;4998058;28;20056;-68
2023/01/12 14:10:18;;;;;;;11.70;2.35;;;;;;;;;;4996690;28;20036;-69
2023/01/12 14:12:56;;;;;;;10.38;2.42;;;;;;;;;;4998638;28;20046;-69
2023/01/12 14:18:20;;;;;;;7.82;1.75;;;;;;;;;;5005559;28;20478;-68
2023/01/12 14:20:48;;;;;;;8.23;1.60;;;;;;;;;;4998346;28;20076;-69
2023/01/12 14:23:19;;;;;;;7.35;2.17;;;;;;;;;;4999901;28;20045;-68
2023/01/12 14:25:46;;;;;;;8.52;2.42;;;;;;;;;;4994072;28;20487;-68
2023/01/12 14:28:23;;;;;;;8.57;2.00;;;;;;;;;;5010666;28;20032;-69
2023/01/12 14:30:51;;;;;;;13.40;2.20;;;;;;;;;;5011460;28;20429;-69
2023/01/12 14:33:22;;;;;;;6.13;1.90;;;;;;;;;;5011314;28;20498;-69
2023/01/12 14:35:50;;;;;;;4.43;1.60;;;;;;;;;;5012592;28;20034;-70
2023/01/12 14:38:18;;;;;;;5.70;1.83;;;;;;;;;;5006937;28;20042;-69
2023/01/12 14:46:48;;;;;;;7.68;1.90;;;;;;;;;;4992645;28;20031;-70
2023/01/12 14:49:20;;;;;;;13.90;1.85;;;;;;;;;;4992474;28;20011;-70
2023/01/12 14:51:53;;;;;;;6.68;2.03;;;;;;;;;;4992642;28;20065;-70
2023/01/12 14:54:23;;;;;;;5.85;1.70;;;;;;;;;;4992503;28;20054;-70
2023/01/12 14:56:55;;;;;;;8.27;2.07;;;;;;;;;;5008074;28;20022;-70
2023/01/12 14:59:30;;;;;;;9.18;1.77;;;;;;;;;;5011952;28;20263;-70
2023/01/12 15:02:12;;;;;;;9.95;2.03;;;;;;;;;;5012289;28;20044;-69
2023/01/12 15:04:57;;;;;;;12.27;4.00;;;;;;;;;;5012391;28;20034;-69
2023/01/12 15:07:25;;;;;;;9.68;1.90;;;;;;;;;;5011189;28;20054;-70
2023/01/12 15:09:55;;;;;;;4.50;1.60;;;;;;;;;;5010539;28;20032;-69
2023/01/12 15:12:46;;;;;;;7.10;1.50;;;;;;;;;;5004755;28;20030;-68
2023/01/12 15:15:18;;;;;;;8.43;1.83;;;;;;;;;;4993842;28;20041;-69
2023/01/12 15:26:04;;;;;;;10.05;2.35;;;;;;;;;;4993382;28;20027;-70
2023/01/12 15:28:30;;;;;;;10.10;2.42;;;;;;;;;;5000800;28;20027;-66
2023/01/12 15:30:57;;;;;;;11.23;2.50;;;;;;;;;;5010280;28;20040;-67
2023/01/12 15:33:23;;;;;;;9.25;2.35;;;;;;;;;;5007343;28;20030;-69
2023/01/12 15:35:49;;;;;;;12.02;2.38;;;;;;;;;;4996371;28;20039;-69
2023/01/12 15:38:16;;;;;;;9.10;1.73;;;;;;;;;;4996018;28;20029;-69
2023/01/12 15:40:45;;;;;;;10.35;1.80;;;;;;;;;;4995801;28;20019;-68
2023/01/12 15:43:16;;;;;;;6.82;1.95;;;;;;;;;;5005113;28;20034;-69
2023/01/12 15:45:43;;;;;;;11.75;2.03;;;;;;;;;;5009362;28;20022;-69
2023/01/12 15:48:10;;;;;;;7.43;1.63;;;;;;;;;;4997823;28;20032;-69
2023/01/12 15:50:37;;;;;;;13.25;1.77;;;;;;;;;;4995463;28;20030;-69
2023/01/12 15:53:05;;;;;;;9.02;2.15;;;;;;;;;;5010104;28;20034;-68
2023/01/12 15:55:34;;;;;;;9.68;2.55;;;;;;;;;;5014602;28;20026;-69